Time;durP1;ratioP1;P1;durP2;ratioP2;P2;SDS_P1;SDS_P2;PMS_P1;PMS_P2;Temp;Humidity;BMP_temperature;BMP_pressure;BME280_temperature;BME280_humidity;BME280_pressure;Samples;Min_cycle;Max_cycle;Signal;HPM_P1;HPM_P2
2022/08/16 00:00:49;;;;;;;18.50;5.15;;;;;;;;;;4949824;28;20043;-75
2022/08/16 00:03:16;;;;;;;21.58;5.75;;;;;;;;;;4950348;28;20078;-72
2022/08/16 00:05:43;;;;;;;16.15;5.50;;;;;;;;;;4949760;28;20052;-74
2022/08/16 00:08:09;;;;;;;17.75;5.00;;;;;;;;;;4949259;28;20449;-73
2022/08/16 00:10:35;;;;;;;19.60;5.38;;;;;;;;;;4949848;28;20080;-74
2022/08/16 00:13:04;;;;;;;21.50;5.60;;;;;;;;;;4950089;28;20059;-73
2022/08/16 00:15:35;;;;;;;18.30;5.00;;;;;;;;;;4952268;28;20047;-72
2022/08/16 00:18:01;;;;;;;19.08;5.38;;;;;;;;;;4951075;28;20493;-75
2022/08/16 00:20:27;;;;;;;18.58;5.30;;;;;;;;;;4949411;28;20509;-74
2022/08/16 00:22:53;;;;;;;20.83;5.90;;;;;;;;;;4948807;28;20065;-72
2022/08/16 00:25:22;;;;;;;16.42;5.57;;;;;;;;;;4945610;28;20082;-73
2022/08/16 00:27:49;;;;;;;16.63;5.25;;;;;;;;;;4947206;28;20046;-73
2022/08/16 00:30:16;;;;;;;19.17;5.68;;;;;;;;;;4968629;28;20137;-74
2022/08/16 00:32:44;;;;;;;19.98;5.25;;;;;;;;;;4969233;28;20416;-75
2022/08/16 00:35:15;;;;;;;17.33;5.55;;;;;;;;;;4969312;28;20508;-72
2022/08/16 00:37:41;;;;;;;15.77;5.07;;;;;;;;;;4967713;28;20047;-72
2022/08/16 00:40:08;;;;;;;20.98;5.95;;;;;;;;;;4969110;28;20046;-73
2022/08/16 00:42:34;;;;;;;16.63;5.03;;;;;;;;;;4969943;28;20553;-73
2022/08/16 00:45:15;;;;;;;19.02;5.10;;;;;;;;;;4973020;28;20053;-74
2022/08/16 00:47:45;;;;;;;15.82;5.60;;;;;;;;;;4971053;28;20054;-73
2022/08/16 00:50:11;;;;;;;13.88;5.05;;;;;;;;;;4969022;28;20588;-73
2022/08/16 00:52:39;;;;;;;25.17;5.40;;;;;;;;;;4968064;28;20553;-73
2022/08/16 00:55:05;;;;;;;18.35;5.28;;;;;;;;;;4968726;28;20051;-73
2022/08/16 00:57:31;;;;;;;15.38;5.15;;;;;;;;;;4973824;28;20054;-73
2022/08/16 00:59:56;;;;;;;20.00;5.10;;;;;;;;;;4960201;28;20051;-72
2022/08/16 01:02:22;;;;;;;20.88;5.60;;;;;;;;;;4964466;28;20050;-74
2022/08/16 01:04:48;;;;;;;19.52;5.25;;;;;;;;;;4970983;28;20169;-74
2022/08/16 01:07:14;;;;;;;17.50;5.45;;;;;;;;;;4970742;28;20600;-74
2022/08/16 01:09:40;;;;;;;18.65;5.88;;;;;;;;;;4970197;28;20047;-74
2022/08/16 01:12:09;;;;;;;19.13;5.38;;;;;;;;;;4969226;28;20042;-72
2022/08/16 01:14:42;;;;;;;19.85;5.90;;;;;;;;;;4965096;28;20070;-74
2022/08/16 01:17:09;;;;;;;23.70;5.95;;;;;;;;;;4948651;28;20517;-72
2022/08/16 01:19:41;;;;;;;22.83;6.53;;;;;;;;;;4963593;28;20051;-73
2022/08/16 01:22:15;;;;;;;19.13;5.90;;;;;;;;;;4967703;28;20508;-72
2022/08/16 01:24:47;;;;;;;18.33;5.85;;;;;;;;;;4967902;28;20051;-73
2022/08/16 01:27:18;;;;;;;17.50;5.97;;;;;;;;;;4967817;28;20055;-72
2022/08/16 01:29:59;;;;;;;20.02;5.63;;;;;;;;;;4968178;28;20053;-73
2022/08/16 01:32:27;;;;;;;20.58;6.25;;;;;;;;;;4968322;28;20251;-72
2022/08/16 01:34:53;;;;;;;19.02;5.97;;;;;;;;;;4967218;28;20460;-72
2022/08/16 01:37:20;;;;;;;15.02;6.22;;;;;;;;;;4967924;28;20512;-73
2022/08/16 01:39:45;;;;;;;16.40;5.97;;;;;;;;;;4971235;28;20043;-73
2022/08/16 01:42:11;;;;;;;16.90;5.55;;;;;;;;;;4974185;28;20062;-75
2022/08/16 01:44:39;;;;;;;16.85;6.47;;;;;;;;;;4972712;28;20141;-73
2022/08/16 01:47:05;;;;;;;12.77;5.90;;;;;;;;;;4970108;28;20051;-73
2022/08/16 01:49:36;;;;;;;17.25;5.90;;;;;;;;;;4966254;28;20058;-72
2022/08/16 01:52:10;;;;;;;21.35;6.63;;;;;;;;;;4937379;28;20059;-73
2022/08/16 01:54:37;;;;;;;15.68;5.57;;;;;;;;;;4953291;28;20071;-73
2022/08/16 01:57:03;;;;;;;17.02;6.07;;;;;;;;;;4953472;28;20511;-77
2022/08/16 01:59:30;;;;;;;18.17;6.45;;;;;;;;;;4951260;28;20047;-73
2022/08/16 02:01:57;;;;;;;15.40;5.70;;;;;;;;;;4948653;28;20043;-72
2022/08/16 02:04:24;;;;;;;15.68;5.90;;;;;;;;;;4948430;28;20051;-73
2022/08/16 02:06:50;;;;;;;18.50;6.03;;;;;;;;;;4947375;28;20057;-73
2022/08/16 02:09:19;;;;;;;18.75;6.25;;;;;;;;;;4947411;28;20051;-72
2022/08/16 02:11:47;;;;;;;13.65;5.70;;;;;;;;;;4946379;28;20050;-72
2022/08/16 02:14:13;;;;;;;18.10;6.47;;;;;;;;;;4949027;28;20047;-73
2022/08/16 02:16:41;;;;;;;15.13;5.78;;;;;;;;;;4949511;28;20086;-73
2022/08/16 02:19:07;;;;;;;16.17;6.15;;;;;;;;;;4950744;28;20047;-73
2022/08/16 02:21:33;;;;;;;22.98;6.00;;;;;;;;;;4951347;28;20102;-73
2022/08/16 02:23:59;;;;;;;18.75;6.10;;;;;;;;;;4949080;28;20066;-73
2022/08/16 02:26:25;;;;;;;16.23;6.38;;;;;;;;;;4951431;28;20055;-72
2022/08/16 02:28:51;;;;;;;20.10;5.97;;;;;;;;;;4952352;28;20125;-75
2022/08/16 02:31:17;;;;;;;13.98;6.30;;;;;;;;;;4951576;28;20086;-72
2022/08/16 02:33:43;;;;;;;10.02;6.00;;;;;;;;;;4951852;28;20121;-74
2022/08/16 02:36:10;;;;;;;15.40;6.40;;;;;;;;;;4950630;28;20053;-74
2022/08/16 02:38:38;;;;;;;19.05;6.72;;;;;;;;;;4950120;28;20051;-74
2022/08/16 02:41:05;;;;;;;17.48;6.30;;;;;;;;;;4930141;28;20044;-72
2022/08/16 02:43:35;;;;;;;11.27;5.95;;;;;;;;;;4940800;28;20489;-73
2022/08/16 02:46:02;;;;;;;16.83;6.55;;;;;;;;;;4947537;28;20109;-73
2022/08/16 02:48:29;;;;;;;21.40;6.43;;;;;;;;;;4947222;28;20623;-74
2022/08/16 02:51:00;;;;;;;18.10;6.20;;;;;;;;;;4946722;28;20086;-72
2022/08/16 02:53:26;;;;;;;14.10;6.07;;;;;;;;;;4947744;28;20143;-73
2022/08/16 02:55:52;;;;;;;17.35;6.00;;;;;;;;;;4950893;28;20056;-75
2022/08/16 02:58:19;;;;;;;14.27;6.25;;;;;;;;;;4946516;29;20063;-73
2022/08/16 03:00:45;;;;;;;16.85;6.03;;;;;;;;;;4945665;28;20047;-73
2022/08/16 03:03:11;;;;;;;13.80;6.10;;;;;;;;;;4966998;28;20151;-75
2022/08/16 03:05:37;;;;;;;15.07;6.43;;;;;;;;;;4966097;28;20405;-71
2022/08/16 03:08:03;;;;;;;12.70;5.22;;;;;;;;;;4965124;28;20050;-73
2022/08/16 03:10:29;;;;;;;10.80;5.57;;;;;;;;;;4966403;28;20436;-73
2022/08/16 03:12:55;;;;;;;12.82;6.13;;;;;;;;;;4967241;28;20085;-73
2022/08/16 03:15:23;;;;;;;17.20;6.10;;;;;;;;;;4948477;28;20056;-74
2022/08/16 03:17:48;;;;;;;21.63;6.40;;;;;;;;;;4937237;28;20043;-72
2022/08/16 03:20:15;;;;;;;18.27;5.68;;;;;;;;;;4946536;28;20106;-73
2022/08/16 03:22:41;;;;;;;16.90;6.47;;;;;;;;;;4946044;28;20062;-73
2022/08/16 03:25:10;;;;;;;13.35;6.03;;;;;;;;;;4946801;28;20047;-72
2022/08/16 03:27:37;;;;;;;14.43;6.13;;;;;;;;;;4946986;28;20565;-74
2022/08/16 03:30:20;;;;;;;18.10;6.22;;;;;;;;;;4946269;28;20141;-73
2022/08/16 03:32:48;;;;;;;18.70;6.32;;;;;;;;;;4946525;28;20048;-72
2022/08/16 03:35:21;;;;;;;14.75;6.53;;;;;;;;;;4954004;28;20047;-70
2022/08/16 03:37:47;;;;;;;15.93;6.30;;;;;;;;;;4945902;28;20047;-73
2022/08/16 03:40:14;;;;;;;16.85;5.90;;;;;;;;;;4945055;28;20114;-75
2022/08/16 03:42:40;;;;;;;13.27;6.03;;;;;;;;;;4947053;28;20051;-72
2022/08/16 03:45:07;;;;;;;19.65;6.82;;;;;;;;;;4946310;28;20057;-73
2022/08/16 03:47:34;;;;;;;14.82;6.20;;;;;;;;;;4947594;28;20051;-75
2022/08/16 03:50:01;;;;;;;19.15;6.32;;;;;;;;;;4950129;28;20893;-72
2022/08/16 03:52:27;;;;;;;18.80;6.55;;;;;;;;;;4948783;28;20329;-74
2022/08/16 03:54:53;;;;;;;15.18;7.22;;;;;;;;;;4944968;28;20384;-72
2022/08/16 03:57:19;;;;;;;13.93;6.15;;;;;;;;;;4947095;28;20078;-74
2022/08/16 03:59:45;;;;;;;18.52;6.68;;;;;;;;;;4946197;28;20390;-72
2022/08/16 04:02:11;;;;;;;13.65;6.03;;;;;;;;;;4946235;28;20093;-71
2022/08/16 04:04:37;;;;;;;19.65;6.40;;;;;;;;;;4941878;28;20043;-73
2022/08/16 04:07:05;;;;;;;12.00;6.03;;;;;;;;;;4931343;29;20103;-73
2022/08/16 04:09:32;;;;;;;21.45;6.20;;;;;;;;;;4958104;28;20097;-72
2022/08/16 04:11:58;;;;;;;15.73;5.70;;;;;;;;;;4969024;28;20423;-73
2022/08/16 04:14:25;;;;;;;14.45;6.07;;;;;;;;;;4956212;28;20054;-73
2022/08/16 04:16:51;;;;;;;19.95;5.55;;;;;;;;;;4950017;29;20134;-73
2022/08/16 04:19:17;;;;;;;13.00;6.15;;;;;;;;;;4954398;28;20134;-72
2022/08/16 04:21:43;;;;;;;18.20;5.97;;;;;;;;;;4951418;29;20326;-73
2022/08/16 04:24:09;;;;;;;14.48;5.75;;;;;;;;;;4950559;28;20114;-73
2022/08/16 04:26:35;;;;;;;18.45;5.68;;;;;;;;;;4963112;28;20055;-74
2022/08/16 04:29:03;;;;;;;19.58;6.00;;;;;;;;;;4968422;28;20050;-74
2022/08/16 04:31:29;;;;;;;15.55;5.30;;;;;;;;;;4968718;28;20042;-72
2022/08/16 04:33:58;;;;;;;14.63;5.13;;;;;;;;;;4969054;28;20129;-72
2022/08/16 04:36:26;;;;;;;14.98;5.50;;;;;;;;;;4968496;28;20048;-74
2022/08/16 04:38:53;;;;;;;16.52;5.65;;;;;;;;;;4968267;28;20043;-74
2022/08/16 04:41:20;;;;;;;20.33;6.03;;;;;;;;;;4969032;28;20054;-74
2022/08/16 04:43:46;;;;;;;15.02;5.20;;;;;;;;;;4939624;28;20044;-72
2022/08/16 04:46:13;;;;;;;15.13;5.60;;;;;;;;;;4929211;29;20063;-74
2022/08/16 04:48:41;;;;;;;16.38;5.68;;;;;;;;;;4931504;29;20135;-72
2022/08/16 04:51:08;;;;;;;14.68;5.97;;;;;;;;;;4947338;29;20056;-73
2022/08/16 04:53:34;;;;;;;22.15;6.60;;;;;;;;;;4952807;28;20108;-73
2022/08/16 04:56:00;;;;;;;19.95;6.20;;;;;;;;;;4950447;29;20055;-75
2022/08/16 04:58:27;;;;;;;16.08;5.82;;;;;;;;;;4952035;28;20043;-72
2022/08/16 05:00:53;;;;;;;17.77;5.75;;;;;;;;;;4949310;28;20047;-72
2022/08/16 05:03:20;;;;;;;13.02;5.38;;;;;;;;;;4948691;28;20054;-72
2022/08/16 05:05:47;;;;;;;23.45;6.35;;;;;;;;;;4948364;28;20397;-74
2022/08/16 05:08:13;;;;;;;17.38;5.93;;;;;;;;;;4949506;28;20349;-74
2022/08/16 05:10:39;;;;;;;9.75;5.43;;;;;;;;;;4950333;28;20058;-73
2022/08/16 05:13:06;;;;;;;14.48;5.38;;;;;;;;;;4948183;28;20161;-74
2022/08/16 05:15:33;;;;;;;13.50;5.38;;;;;;;;;;4929946;29;20174;-73
2022/08/16 05:17:59;;;;;;;17.08;5.63;;;;;;;;;;4965650;28;20161;-72
2022/08/16 05:20:27;;;;;;;14.75;5.32;;;;;;;;;;4968627;28;20047;-73
2022/08/16 05:22:52;;;;;;;16.33;5.85;;;;;;;;;;4966629;28;20043;-73
2022/08/16 05:25:19;;;;;;;15.85;5.82;;;;;;;;;;4968377;28;20444;-73
2022/08/16 05:27:45;;;;;;;18.67;5.82;;;;;;;;;;4968188;28;20075;-71
2022/08/16 05:30:12;;;;;;;17.10;6.18;;;;;;;;;;4968743;28;20047;-73
2022/08/16 05:32:40;;;;;;;12.68;5.40;;;;;;;;;;4956877;28;20051;-73
2022/08/16 05:35:08;;;;;;;14.93;5.72;;;;;;;;;;4949582;28;20075;-76
2022/08/16 05:37:35;;;;;;;16.52;6.25;;;;;;;;;;4947671;28;20056;-72
2022/08/16 05:40:03;;;;;;;13.15;5.30;;;;;;;;;;4948844;28;20195;-71
2022/08/16 05:42:29;;;;;;;17.70;5.57;;;;;;;;;;4948875;28;20047;-75
2022/08/16 05:44:55;;;;;;;12.65;5.75;;;;;;;;;;4945274;28;20058;-74
2022/08/16 05:47:21;;;;;;;17.13;5.88;;;;;;;;;;4946953;29;20109;-71
2022/08/16 05:49:47;;;;;;;20.75;6.28;;;;;;;;;;4950354;28;20264;-74
2022/08/16 05:52:12;;;;;;;16.52;5.85;;;;;;;;;;4952649;28;20047;-73
2022/08/16 05:54:39;;;;;;;17.30;5.65;;;;;;;;;;4949585;29;20131;-73
2022/08/16 05:57:05;;;;;;;13.32;5.93;;;;;;;;;;4951690;28;20098;-74
2022/08/16 05:59:31;;;;;;;14.95;5.07;;;;;;;;;;4948545;28;20457;-74
2022/08/16 06:01:57;;;;;;;12.00;5.57;;;;;;;;;;4948179;28;20051;-73
2022/08/16 06:04:23;;;;;;;14.77;5.60;;;;;;;;;;4948900;28;20055;-74
2022/08/16 06:06:49;;;;;;;14.00;6.10;;;;;;;;;;4949227;28;20572;-74
2022/08/16 06:09:17;;;;;;;13.20;5.43;;;;;;;;;;4950064;28;20458;-74
2022/08/16 06:11:44;;;;;;;22.45;6.50;;;;;;;;;;4951205;28;20060;-74
2022/08/16 06:14:10;;;;;;;18.60;6.18;;;;;;;;;;4952047;28;20560;-72
2022/08/16 06:16:37;;;;;;;16.30;5.63;;;;;;;;;;4953926;28;20541;-73
2022/08/16 06:19:03;;;;;;;17.95;6.00;;;;;;;;;;4952406;28;20132;-73
2022/08/16 06:21:29;;;;;;;16.70;6.00;;;;;;;;;;4948234;28;20265;-74
2022/08/16 06:23:55;;;;;;;17.08;6.88;;;;;;;;;;4932801;28;20410;-73
2022/08/16 06:26:21;;;;;;;21.27;6.18;;;;;;;;;;4949815;28;20047;-74
2022/08/16 06:28:47;;;;;;;20.10;6.63;;;;;;;;;;4938622;28;20043;-74
2022/08/16 06:31:14;;;;;;;20.98;6.55;;;;;;;;;;4931160;29;20051;-75
2022/08/16 06:33:41;;;;;;;16.25;6.57;;;;;;;;;;4930957;29;20078;-75
2022/08/16 06:36:07;;;;;;;18.17;6.25;;;;;;;;;;4931017;29;20051;-75
2022/08/16 06:38:35;;;;;;;16.95;5.60;;;;;;;;;;4939744;29;20044;-73
2022/08/16 06:41:06;;;;;;;18.67;6.50;;;;;;;;;;4951790;28;20748;-76
2022/08/16 06:43:33;;;;;;;21.05;6.72;;;;;;;;;;4951256;28;20093;-74
2022/08/16 06:46:01;;;;;;;18.02;6.75;;;;;;;;;;4951605;28;20118;-74
2022/08/16 06:48:27;;;;;;;14.68;6.47;;;;;;;;;;4950965;28;20062;-74
2022/08/16 06:50:53;;;;;;;16.60;6.07;;;;;;;;;;4948508;28;20125;-73
2022/08/16 06:53:19;;;;;;;15.93;6.22;;;;;;;;;;4949614;28;20051;-74
2022/08/16 06:55:45;;;;;;;22.48;6.10;;;;;;;;;;4952627;28;20059;-78
2022/08/16 06:58:11;;;;;;;23.50;6.18;;;;;;;;;;4966838;28;20053;-79
2022/08/16 07:00:37;;;;;;;20.42;6.25;;;;;;;;;;4982447;28;20420;-81
2022/08/16 07:03:06;;;;;;;23.38;6.45;;;;;;;;;;4975844;28;20073;-74
2022/08/16 07:05:33;;;;;;;23.83;6.68;;;;;;;;;;4967392;28;20559;-74
2022/08/16 07:07:59;;;;;;;15.07;6.68;;;;;;;;;;4966498;28;20047;-75
2022/08/16 07:10:26;;;;;;;13.95;6.10;;;;;;;;;;4968732;28;20295;-77
2022/08/16 07:12:52;;;;;;;18.83;5.93;;;;;;;;;;4932640;28;20633;-76
2022/08/16 07:15:18;;;;;;;21.60;6.80;;;;;;;;;;4939973;28;20121;-74
2022/08/16 07:17:45;;;;;;;9.68;5.85;;;;;;;;;;4967366;28;20114;-73
2022/08/16 07:20:12;;;;;;;18.60;6.18;;;;;;;;;;4983284;28;20110;-81
2022/08/16 07:22:40;;;;;;;16.95;5.80;;;;;;;;;;4967008;28;20900;-72
2022/08/16 07:25:08;;;;;;;19.05;5.93;;;;;;;;;;4968080;28;20043;-74
2022/08/16 07:27:34;;;;;;;17.10;5.93;;;;;;;;;;4968436;28;20047;-75
2022/08/16 07:30:00;;;;;;;14.32;6.00;;;;;;;;;;4968091;28;20079;-74
2022/08/16 07:32:27;;;;;;;13.90;5.90;;;;;;;;;;4959383;28;20497;-75
2022/08/16 07:34:53;;;;;;;18.17;6.30;;;;;;;;;;4947505;28;20101;-73
2022/08/16 07:37:19;;;;;;;18.65;6.60;;;;;;;;;;4946271;28;20055;-73
2022/08/16 07:39:45;;;;;;;25.15;6.38;;;;;;;;;;4948315;29;20078;-76
2022/08/16 07:42:11;;;;;;;19.55;5.82;;;;;;;;;;4951347;28;20055;-75
2022/08/16 07:44:37;;;;;;;17.65;6.22;;;;;;;;;;4951254;28;20065;-74
2022/08/16 07:47:03;;;;;;;15.23;6.05;;;;;;;;;;4952976;28;20130;-76
2022/08/16 07:49:29;;;;;;;19.80;6.13;;;;;;;;;;4958590;28;20444;-75
2022/08/16 07:51:55;;;;;;;17.27;6.35;;;;;;;;;;4954658;28;20066;-74
2022/08/16 07:54:21;;;;;;;19.25;5.60;;;;;;;;;;4950818;28;20106;-73
2022/08/16 07:56:46;;;;;;;19.52;6.30;;;;;;;;;;4950165;28;20039;-75
2022/08/16 07:59:12;;;;;;;19.50;6.38;;;;;;;;;;4931741;28;20302;-75
2022/08/16 08:01:38;;;;;;;16.88;6.45;;;;;;;;;;4941881;29;20470;-75
2022/08/16 08:04:07;;;;;;;15.98;5.88;;;;;;;;;;4948572;29;20139;-75
2022/08/16 08:06:33;;;;;;;12.15;5.35;;;;;;;;;;4950699;28;20062;-72
2022/08/16 08:08:59;;;;;;;18.13;5.55;;;;;;;;;;4950483;28;20055;-75
2022/08/16 08:11:26;;;;;;;16.48;5.60;;;;;;;;;;4950415;28;20051;-75
2022/08/16 08:13:53;;;;;;;17.80;5.68;;;;;;;;;;4950325;28;20053;-74
2022/08/16 08:16:20;;;;;;;15.18;5.88;;;;;;;;;;4937571;28;20059;-75
2022/08/16 08:18:48;;;;;;;16.10;5.85;;;;;;;;;;4931473;29;20050;-74
2022/08/16 08:21:18;;;;;;;20.38;6.05;;;;;;;;;;4949547;29;20051;-75
2022/08/16 08:23:46;;;;;;;15.88;5.57;;;;;;;;;;4956937;28;20042;-74
2022/08/16 08:26:12;;;;;;;23.17;5.82;;;;;;;;;;4971039;28;20113;-77
2022/08/16 08:28:38;;;;;;;18.42;5.95;;;;;;;;;;4974226;28;20412;-75
2022/08/16 08:31:05;;;;;;;15.52;6.35;;;;;;;;;;4974276;28;20125;-75
2022/08/16 08:33:31;;;;;;;20.08;6.03;;;;;;;;;;4969786;28;20379;-72
2022/08/16 08:36:03;;;;;;;19.27;6.13;;;;;;;;;;4969405;28;20046;-74
2022/08/16 08:38:29;;;;;;;17.77;6.10;;;;;;;;;;4970266;28;20146;-75
2022/08/16 08:40:55;;;;;;;17.70;6.25;;;;;;;;;;4968807;28;20121;-76
2022/08/16 08:43:22;;;;;;;19.10;6.32;;;;;;;;;;4970551;28;20054;-76
2022/08/16 08:45:48;;;;;;;19.60;6.30;;;;;;;;;;4969727;28;20185;-75
2022/08/16 08:48:15;;;;;;;12.93;4.88;;;;;;;;;;4955165;28;20047;-73
2022/08/16 08:50:41;;;;;;;18.80;6.07;;;;;;;;;;4949191;28;20062;-74
2022/08/16 08:53:09;;;;;;;22.73;6.13;;;;;;;;;;4950061;28;20051;-75
2022/08/16 08:55:35;;;;;;;14.80;5.35;;;;;;;;;;4950884;28;20051;-75
2022/08/16 08:58:01;;;;;;;19.17;5.72;;;;;;;;;;4942101;28;20052;-76
2022/08/16 09:00:28;;;;;;;15.52;5.72;;;;;;;;;;4950400;28;20047;-76
2022/08/16 09:02:55;;;;;;;14.40;5.72;;;;;;;;;;4950214;28;20062;-74
2022/08/16 09:05:24;;;;;;;14.55;5.32;;;;;;;;;;4950033;28;20059;-74
2022/08/16 09:07:50;;;;;;;18.50;6.35;;;;;;;;;;4949826;28;20118;-75
2022/08/16 09:10:17;;;;;;;21.33;6.07;;;;;;;;;;4950863;28;20075;-75
2022/08/16 09:12:44;;;;;;;13.40;5.40;;;;;;;;;;4949844;28;20065;-75
2022/08/16 09:15:13;;;;;;;20.73;5.35;;;;;;;;;;4954479;28;20070;-75
2022/08/16 09:17:39;;;;;;;17.65;5.97;;;;;;;;;;4950960;28;20051;-74
2022/08/16 09:20:06;;;;;;;18.35;5.80;;;;;;;;;;4949990;28;20110;-75
2022/08/16 09:22:33;;;;;;;17.58;5.93;;;;;;;;;;4949076;28;20078;-73
2022/08/16 09:24:59;;;;;;;17.95;5.60;;;;;;;;;;4950096;28;20463;-76
2022/08/16 09:27:25;;;;;;;13.50;5.35;;;;;;;;;;4949389;28;20615;-72
2022/08/16 09:29:52;;;;;;;23.13;5.43;;;;;;;;;;4951293;28;20069;-73
2022/08/16 09:32:17;;;;;;;18.60;5.57;;;;;;;;;;4963592;28;20055;-75
2022/08/16 09:34:44;;;;;;;12.23;5.22;;;;;;;;;;4971085;28;20061;-75
2022/08/16 09:37:12;;;;;;;18.27;5.30;;;;;;;;;;4954700;28;20423;-75
2022/08/16 09:39:37;;;;;;;12.73;5.18;;;;;;;;;;4928312;29;20492;-74
2022/08/16 09:42:03;;;;;;;17.38;5.28;;;;;;;;;;4929375;29;20048;-74
2022/08/16 09:44:29;;;;;;;14.88;5.18;;;;;;;;;;4929498;29;20058;-73
2022/08/16 09:46:57;;;;;;;11.52;4.80;;;;;;;;;;4929950;29;20051;-75
2022/08/16 09:49:25;;;;;;;15.70;5.00;;;;;;;;;;4959133;28;20408;-75
2022/08/16 09:51:54;;;;;;;15.88;5.22;;;;;;;;;;4969214;28;20138;-75
2022/08/16 09:54:21;;;;;;;13.23;5.20;;;;;;;;;;4969229;28;20245;-77
2022/08/16 09:56:48;;;;;;;13.45;4.90;;;;;;;;;;4951396;28;20059;-76
2022/08/16 09:59:14;;;;;;;9.55;4.72;;;;;;;;;;4948866;28;20040;-73
2022/08/16 10:01:41;;;;;;;13.88;4.47;;;;;;;;;;4945829;28;20126;-76
2022/08/16 10:04:07;;;;;;;12.93;5.32;;;;;;;;;;4948728;28;20111;-76
2022/08/16 10:06:34;;;;;;;12.70;5.18;;;;;;;;;;4949239;28;20046;-76
2022/08/16 10:09:05;;;;;;;9.77;4.50;;;;;;;;;;4949395;28;20204;-74
2022/08/16 10:14:16;;;;;;;18.77;5.20;;;;;;;;;;4949968;28;20509;-73
2022/08/16 10:16:44;;;;;;;21.17;5.63;;;;;;;;;;4948280;29;20126;-75
2022/08/16 10:19:11;;;;;;;17.40;4.72;;;;;;;;;;4948718;29;20130;-74
2022/08/16 10:21:38;;;;;;;16.48;4.30;;;;;;;;;;4948571;28;20054;-77
2022/08/16 10:24:06;;;;;;;13.65;5.43;;;;;;;;;;4947803;28;20051;-74
2022/08/16 10:26:32;;;;;;;21.85;5.97;;;;;;;;;;4943742;29;20047;-74
2022/08/16 10:28:59;;;;;;;21.95;6.05;;;;;;;;;;4931423;29;20139;-76
2022/08/16 10:31:25;;;;;;;19.70;6.72;;;;;;;;;;4932731;29;20075;-76
2022/08/16 10:33:52;;;;;;;18.77;6.38;;;;;;;;;;4932529;29;20086;-75
2022/08/16 10:36:19;;;;;;;16.63;6.30;;;;;;;;;;4931598;29;20098;-75
2022/08/16 10:38:45;;;;;;;18.95;6.47;;;;;;;;;;4932761;28;20048;-76
2022/08/16 10:41:12;;;;;;;23.00;6.05;;;;;;;;;;4969823;28;20120;-75
2022/08/16 10:43:40;;;;;;;18.73;5.85;;;;;;;;;;4968432;28;20078;-75
2022/08/16 10:46:10;;;;;;;23.40;5.90;;;;;;;;;;4969777;28;20047;-75
2022/08/16 10:48:37;;;;;;;19.95;6.07;;;;;;;;;;4969547;28;20251;-73
2022/08/16 10:51:03;;;;;;;19.33;5.28;;;;;;;;;;4968703;28;20053;-77
2022/08/16 10:53:32;;;;;;;15.93;5.57;;;;;;;;;;4968328;28;20046;-76
2022/08/16 10:55:59;;;;;;;16.90;5.63;;;;;;;;;;4953750;28;20497;-75
2022/08/16 10:58:25;;;;;;;15.68;5.72;;;;;;;;;;4941712;29;20061;-74
2022/08/16 11:00:52;;;;;;;14.48;5.32;;;;;;;;;;4949748;28;20101;-74
2022/08/16 11:03:19;;;;;;;15.80;5.10;;;;;;;;;;4947401;28;20137;-74
2022/08/16 11:05:45;;;;;;;12.00;5.28;;;;;;;;;;4929444;29;20047;-75
2022/08/16 11:08:12;;;;;;;13.75;5.00;;;;;;;;;;4928749;29;20066;-73
2022/08/16 11:10:41;;;;;;;21.45;4.90;;;;;;;;;;4928316;29;20553;-74
2022/08/16 11:13:08;;;;;;;17.48;5.45;;;;;;;;;;4931790;28;20050;-76
2022/08/16 11:15:35;;;;;;;18.35;5.55;;;;;;;;;;4927890;29;20060;-74
2022/08/16 11:18:02;;;;;;;13.15;4.65;;;;;;;;;;4935639;29;20122;-74
2022/08/16 11:20:28;;;;;;;16.92;4.82;;;;;;;;;;4947961;28;20051;-75
2022/08/16 11:22:55;;;;;;;12.85;4.90;;;;;;;;;;4950359;28;20130;-75
2022/08/16 11:25:24;;;;;;;14.27;5.05;;;;;;;;;;4951469;28;20047;-76
2022/08/16 11:27:51;;;;;;;18.13;4.75;;;;;;;;;;4950956;28;20060;-76
2022/08/16 11:30:18;;;;;;;13.80;5.00;;;;;;;;;;4954129;28;20050;-74
2022/08/16 11:32:44;;;;;;;14.80;4.85;;;;;;;;;;4969935;28;20050;-74
2022/08/16 11:35:16;;;;;;;11.68;4.88;;;;;;;;;;4969784;28;20047;-75
2022/08/16 11:37:56;;;;;;;13.05;4.68;;;;;;;;;;4951072;28;20055;-73
2022/08/16 11:40:25;;;;;;;17.10;4.30;;;;;;;;;;4952156;28;20050;-74
2022/08/16 11:42:52;;;;;;;19.88;4.85;;;;;;;;;;4950143;28;20054;-74
2022/08/16 11:45:18;;;;;;;11.55;4.70;;;;;;;;;;4947522;28;20161;-75
2022/08/16 11:47:44;;;;;;;13.93;5.20;;;;;;;;;;4949010;28;20065;-75
2022/08/16 11:50:11;;;;;;;15.90;4.53;;;;;;;;;;4947785;28;20113;-74
2022/08/16 11:52:38;;;;;;;12.85;4.35;;;;;;;;;;4949418;28;20552;-75
2022/08/16 11:55:06;;;;;;;17.08;4.57;;;;;;;;;;4947256;28;20056;-76
2022/08/16 11:57:32;;;;;;;16.75;5.00;;;;;;;;;;4937987;29;20058;-76
2022/08/16 11:59:58;;;;;;;12.68;4.63;;;;;;;;;;4948013;28;20051;-74
2022/08/16 12:02:24;;;;;;;10.68;4.85;;;;;;;;;;4945437;29;20509;-74
2022/08/16 12:04:50;;;;;;;11.50;4.30;;;;;;;;;;4943360;28;20044;-74
2022/08/16 12:07:16;;;;;;;15.80;5.53;;;;;;;;;;4935840;29;20488;-76
2022/08/16 12:09:42;;;;;;;17.60;5.78;;;;;;;;;;4949779;28;20047;-75
2022/08/16 12:12:08;;;;;;;14.52;5.50;;;;;;;;;;4950361;28;20071;-75
2022/08/16 12:14:34;;;;;;;14.13;4.53;;;;;;;;;;4947199;28;20052;-75
2022/08/16 12:17:03;;;;;;;16.90;4.70;;;;;;;;;;4946686;29;20119;-76
2022/08/16 12:19:30;;;;;;;11.57;5.22;;;;;;;;;;4948986;28;20096;-76
2022/08/16 12:21:56;;;;;;;13.00;5.05;;;;;;;;;;4956351;28;20050;-76
2022/08/16 12:24:22;;;;;;;13.07;4.88;;;;;;;;;;4968125;28;20240;-75
2022/08/16 12:26:48;;;;;;;11.43;4.40;;;;;;;;;;4960371;28;20047;-76
2022/08/16 12:29:14;;;;;;;10.57;4.20;;;;;;;;;;4950489;28;20568;-76
2022/08/16 12:31:41;;;;;;;12.70;4.95;;;;;;;;;;4951076;28;20087;-74
2022/08/16 12:34:08;;;;;;;10.13;4.10;;;;;;;;;;4948788;28;20050;-73
2022/08/16 12:36:34;;;;;;;11.52;4.00;;;;;;;;;;4950157;28;20044;-76
2022/08/16 12:39:01;;;;;;;13.15;4.35;;;;;;;;;;4954090;28;20079;-73
2022/08/16 12:41:27;;;;;;;10.23;4.00;;;;;;;;;;4953229;28;20051;-76
2022/08/16 12:43:54;;;;;;;10.85;4.40;;;;;;;;;;4940194;28;20556;-75
2022/08/16 12:46:20;;;;;;;16.13;4.53;;;;;;;;;;4932023;29;20062;-75
2022/08/16 12:48:58;;;;;;;12.25;4.60;;;;;;;;;;4931880;29;20134;-74
2022/08/16 12:51:31;;;;;;;11.77;4.25;;;;;;;;;;4939773;29;20047;-76
2022/08/16 12:53:59;;;;;;;10.50;4.00;;;;;;;;;;4951177;28;20054;-74
2022/08/16 12:56:30;;;;;;;8.77;4.15;;;;;;;;;;4951443;28;20313;-75
2022/08/16 12:58:56;;;;;;;11.30;4.30;;;;;;;;;;4952009;28;20458;-74
2022/08/16 13:01:28;;;;;;;13.35;4.45;;;;;;;;;;4951699;28;20492;-77
2022/08/16 13:03:57;;;;;;;6.80;3.70;;;;;;;;;;4952977;28;20055;-75
2022/08/16 13:06:24;;;;;;;11.90;4.22;;;;;;;;;;4950380;28;20193;-75
2022/08/16 13:08:52;;;;;;;12.73;3.85;;;;;;;;;;4949009;28;20043;-75
2022/08/16 13:11:27;;;;;;;12.23;3.53;;;;;;;;;;4949304;29;20083;-76
2022/08/16 13:13:53;;;;;;;13.88;3.78;;;;;;;;;;4950019;28;20098;-75
2022/08/16 13:16:18;;;;;;;11.30;4.10;;;;;;;;;;4951411;28;20071;-74
2022/08/16 13:18:44;;;;;;;9.60;4.05;;;;;;;;;;4951109;28;20575;-75
2022/08/16 13:21:10;;;;;;;13.65;3.97;;;;;;;;;;4949697;28;20154;-75
2022/08/16 13:23:36;;;;;;;9.95;3.70;;;;;;;;;;4949831;28;20122;-75
2022/08/16 13:26:04;;;;;;;8.23;3.30;;;;;;;;;;4946526;28;20560;-75
2022/08/16 13:28:30;;;;;;;7.55;3.53;;;;;;;;;;4931676;29;20079;-77
2022/08/16 13:30:57;;;;;;;7.75;3.53;;;;;;;;;;4965744;28;20066;-75
2022/08/16 13:33:27;;;;;;;8.70;3.50;;;;;;;;;;4969507;28;20113;-78
2022/08/16 13:35:54;;;;;;;13.82;4.05;;;;;;;;;;4969435;28;20067;-76
2022/08/16 13:38:20;;;;;;;12.57;4.35;;;;;;;;;;4971782;28;20113;-76
2022/08/16 13:40:47;;;;;;;12.82;4.10;;;;;;;;;;4971086;28;20545;-75
2022/08/16 13:43:14;;;;;;;11.05;3.60;;;;;;;;;;4971993;28;20489;-74
2022/08/16 13:45:40;;;;;;;15.60;3.85;;;;;;;;;;4964703;28;20047;-75
2022/08/16 13:48:06;;;;;;;9.45;3.67;;;;;;;;;;4969301;28;20050;-74
2022/08/16 13:50:33;;;;;;;14.15;3.90;;;;;;;;;;4969956;28;20057;-74
2022/08/16 13:53:00;;;;;;;8.25;3.60;;;;;;;;;;4968380;28;20078;-75
2022/08/16 13:55:27;;;;;;;23.42;3.80;;;;;;;;;;4967366;28;20545;-75
2022/08/16 13:57:53;;;;;;;12.85;4.35;;;;;;;;;;4969532;28;20077;-75
2022/08/16 14:00:19;;;;;;;15.30;4.50;;;;;;;;;;4968556;28;20484;-77
2022/08/16 14:02:46;;;;;;;18.25;4.60;;;;;;;;;;4968368;28;20775;-76
2022/08/16 14:05:13;;;;;;;16.13;4.38;;;;;;;;;;4967624;28;20059;-74
2022/08/16 14:07:39;;;;;;;13.15;4.70;;;;;;;;;;4967431;28;20061;-75
2022/08/16 14:10:07;;;;;;;14.68;4.40;;;;;;;;;;4967587;28;20050;-77
2022/08/16 14:12:35;;;;;;;13.30;4.50;;;;;;;;;;4968752;28;20067;-75
2022/08/16 14:15:02;;;;;;;22.08;4.65;;;;;;;;;;4966365;28;20054;-74
2022/08/16 14:17:28;;;;;;;15.30;4.10;;;;;;;;;;4930011;29;20082;-74
2022/08/16 14:19:54;;;;;;;16.08;4.13;;;;;;;;;;4935103;28;20052;-75
2022/08/16 14:22:23;;;;;;;12.20;4.13;;;;;;;;;;4969977;28;20042;-74
2022/08/16 14:24:51;;;;;;;18.00;4.78;;;;;;;;;;4971904;28;20061;-76
2022/08/16 14:27:21;;;;;;;16.60;4.95;;;;;;;;;;4968655;28;20085;-76
2022/08/16 14:29:49;;;;;;;15.63;4.40;;;;;;;;;;4967870;28;20110;-74
2022/08/16 14:32:16;;;;;;;17.58;4.40;;;;;;;;;;4969908;28;20046;-75